Gratton, Virginia
Current Conditions -  °F | °C
As of 5:55 PM on Thursday 27 Nov 2014 (Local Time) from KMKJ Reporting Station
Overcast Overcast  
Wind Chill: 19°   Ceiling: 3000
Heat Index: 31°   Visibility: 7mi
Dew Point: 24°   Wind: 17mph
Humidity: 75%   Direction: 280°W
Pressure: 30.18"   Gusts: 35mph
Location:  37.0706°N, 81.5072°W
Report Text: KMKJ 272255Z AUTO 28015G30KT 7SM SCT017 BKN030 OVC036 M01/M05 A3018 RMK AO2 T10061046
Loading
Personal Weather Stations






























Interactive Weather Map New forecast layout! Learn more

10-Day Weather Forecast

Advertisements
Track Severe Weather on mobile